עמוד ראשי
METAR-TAF:

METAR-TAF

שדות תעופה :

חרס דה לה פרונטרה, ספרד

קו רוחב: 36-45N, קו אורך: 006-04W, גובה: 27מטר

תצפית מזג אוויר נוכחית

הדו"ח נערך לפני 33דקות, בשעה 12:30 UTC
רוח 7קשר עם כיוונים משתנים
טמפרטורת 35 צלסיוס
לחות 37%
לחץ 1015 hPa
ראות 10 קילומטר או יותר
ללא עננים שבסיסם נמוך מ 5000 רגל או קומולונימבוס

METAR: LEJR 171230Z VRB07KT CAVOK 35/18 Q1015

זמן: 15:03 (13:03 UTC)

תחזית

הדו"ח נערך לפני 5 שעות ו 3דקות, בשעה 08:00 UTC
תחזית בתוקף מ 17 ב 09 UTC עד 18 ב 09 UTC
רוח 3קשר עם כיוונים משתנים
ראות 10 קילומטר או יותר
ללא עננים שבסיסם נמוך מ 5000 רגל או קומולונימבוס
יעשה מ
17 ב 09 UTC עד 17 ב 11 UTC
רוח 10קשר מכיוון דרום
יעשה מ
17 ב 16 UTC עד 17 ב 18 UTC
רוח 10קשר מכיוון מערב/דרום-מערב
יעשה מ
17 ב 20 UTC עד 17 ב 22 UTC
רוח 3קשר עם כיוונים משתנים

TAF: LEJR 170800Z 1709/1809 VRB03KT CAVOK TX37/1714Z TN19/1805Z BECMG 1709/1711 18010KT BECMG 1716/1718 25010KT BECMG 1720/1722 VRB03KT

תצפיות ותחזיות מזג אוויר לגבי יותר מ- 4,000 שדות תעופה ברחבי העולם. דוחות METAR ו- TAF.

התחנות הזמינות מסומנות בנקודות צהובות ואדומות על גבי המפה.

העבר את העכבר לנקודה הצבעונית על מנת לראות את שם התחנה.

לאחר מכן, לחץ כדי לראות את תוכן ואת תחזיות מזג האוויר.

כדי לשנות את המפה: לחץ על הכפתורים הירוקים עם הפלוס השחור כדי להתקרב; על הכפתור הירוק עם המקף כדי להתרחק; או בחיצים הירוקים למפות סמוכות.


METAR-TAF: